sensor_id;sensor_type;location;lat;lon;timestamp;P1;durP1;ratioP1;P2;durP2;ratioP2
78985;SDS011;68384;55.750;48.746;2024-03-02T00:00:44;17.77;;;9.43;;
78985;SDS011;68384;55.750;48.746;2024-03-02T00:01:48;17.80;;;8.65;;
78985;SDS011;68384;55.750;48.746;2024-03-02T00:02:50;13.70;;;8.40;;
78985;SDS011;68384;55.750;48.746;2024-03-02T00:03:52;13.80;;;7.72;;
78985;SDS011;68384;55.750;48.746;2024-03-02T00:04:55;19.10;;;9.00;;
78985;SDS011;68384;55.750;48.746;2024-03-02T00:05:57;15.68;;;9.68;;
78985;SDS011;68384;55.750;48.746;2024-03-02T00:06:59;15.75;;;9.20;;
78985;SDS011;68384;55.750;48.746;2024-03-02T00:08:02;14.38;;;9.35;;
78985;SDS011;68384;55.750;48.746;2024-03-02T00:09:07;15.32;;;8.38;;
78985;SDS011;68384;55.750;48.746;2024-03-02T00:11:16;14.63;;;8.00;;
78985;SDS011;68384;55.750;48.746;2024-03-02T00:12:18;15.45;;;8.45;;
78985;SDS011;68384;55.750;48.746;2024-03-02T00:13:22;17.42;;;8.23;;
78985;SDS011;68384;55.750;48.746;2024-03-02T00:14:24;13.95;;;8.45;;
78985;SDS011;68384;55.750;48.746;2024-03-02T00:15:45;16.50;;;8.85;;
78985;SDS011;68384;55.750;48.746;2024-03-02T00:16:54;17.05;;;8.75;;
78985;SDS011;68384;55.750;48.746;2024-03-02T00:17:58;14.77;;;8.48;;
78985;SDS011;68384;55.750;48.746;2024-03-02T00:19:04;15.27;;;8.88;;
78985;SDS011;68384;55.750;48.746;2024-03-02T00:20:08;14.90;;;8.82;;
78985;SDS011;68384;55.750;48.746;2024-03-02T00:21:11;15.95;;;9.57;;
78985;SDS011;68384;55.750;48.746;2024-03-02T00:22:16;16.05;;;9.02;;
78985;SDS011;68384;55.750;48.746;2024-03-02T00:23:18;16.40;;;8.93;;
78985;SDS011;68384;55.750;48.746;2024-03-02T00:24:28;15.68;;;9.10;;
78985;SDS011;68384;55.750;48.746;2024-03-02T00:25:36;16.73;;;9.23;;
78985;SDS011;68384;55.750;48.746;2024-03-02T00:26:41;18.75;;;9.77;;
78985;SDS011;68384;55.750;48.746;2024-03-02T00:27:49;14.20;;;8.88;;
78985;SDS011;68384;55.750;48.746;2024-03-02T00:28:53;15.68;;;8.60;;
78985;SDS011;68384;55.750;48.746;2024-03-02T00:30:00;15.10;;;8.93;;
78985;SDS011;68384;55.750;48.746;2024-03-02T00:32:13;20.40;;;9.15;;
78985;SDS011;68384;55.750;48.746;2024-03-02T00:33:18;19.63;;;9.75;;
78985;SDS011;68384;55.750;48.746;2024-03-02T00:34:22;15.52;;;9.27;;
78985;SDS011;68384;55.750;48.746;2024-03-02T00:35:24;15.35;;;8.65;;
78985;SDS011;68384;55.750;48.746;2024-03-02T00:36:26;16.27;;;9.75;;
78985;SDS011;68384;55.750;48.746;2024-03-02T00:37:29;14.88;;;9.40;;
78985;SDS011;68384;55.750;48.746;2024-03-02T00:38:31;17.15;;;8.93;;
78985;SDS011;68384;55.750;48.746;2024-03-02T00:39:34;16.45;;;9.85;;
78985;SDS011;68384;55.750;48.746;2024-03-02T00:40:37;16.75;;;8.90;;
78985;SDS011;68384;55.750;48.746;2024-03-02T00:41:40;17.27;;;9.07;;
78985;SDS011;68384;55.750;48.746;2024-03-02T00:42:46;16.38;;;8.88;;
78985;SDS011;68384;55.750;48.746;2024-03-02T00:43:52;18.20;;;10.15;;
78985;SDS011;68384;55.750;48.746;2024-03-02T00:44:57;14.55;;;9.05;;
78985;SDS011;68384;55.750;48.746;2024-03-02T00:46:00;19.15;;;9.48;;
78985;SDS011;68384;55.750;48.746;2024-03-02T00:47:02;18.85;;;9.25;;
78985;SDS011;68384;55.750;48.746;2024-03-02T00:48:04;15.90;;;8.93;;
78985;SDS011;68384;55.750;48.746;2024-03-02T00:50:15;19.63;;;9.93;;
78985;SDS011;68384;55.750;48.746;2024-03-02T00:51:31;17.83;;;9.13;;
78985;SDS011;68384;55.750;48.746;2024-03-02T00:52:34;15.80;;;9.38;;
78985;SDS011;68384;55.750;48.746;2024-03-02T00:53:37;18.70;;;8.50;;
78985;SDS011;68384;55.750;48.746;2024-03-02T00:54:39;17.73;;;10.20;;
78985;SDS011;68384;55.750;48.746;2024-03-02T00:55:41;14.48;;;9.23;;
78985;SDS011;68384;55.750;48.746;2024-03-02T00:56:49;16.63;;;9.48;;
78985;SDS011;68384;55.750;48.746;2024-03-02T00:57:51;19.38;;;9.45;;
78985;SDS011;68384;55.750;48.746;2024-03-02T00:58:54;15.38;;;9.48;;
78985;SDS011;68384;55.750;48.746;2024-03-02T00:59:56;18.05;;;10.02;;
78985;SDS011;68384;55.750;48.746;2024-03-02T01:00:58;18.40;;;9.93;;
78985;SDS011;68384;55.750;48.746;2024-03-02T01:02:00;16.55;;;10.10;;
78985;SDS011;68384;55.750;48.746;2024-03-02T01:03:03;18.38;;;9.90;;
78985;SDS011;68384;55.750;48.746;2024-03-02T01:04:05;15.25;;;8.85;;
78985;SDS011;68384;55.750;48.746;2024-03-02T01:05:07;20.83;;;9.88;;
78985;SDS011;68384;55.750;48.746;2024-03-02T01:06:10;18.42;;;9.90;;
78985;SDS011;68384;55.750;48.746;2024-03-02T01:07:12;18.42;;;10.70;;
78985;SDS011;68384;55.750;48.746;2024-03-02T01:08:14;17.00;;;9.57;;
78985;SDS011;68384;55.750;48.746;2024-03-02T01:09:16;15.82;;;9.05;;
78985;SDS011;68384;55.750;48.746;2024-03-02T01:10:20;17.40;;;9.50;;
78985;SDS011;68384;55.750;48.746;2024-03-02T01:11:22;17.02;;;10.50;;
78985;SDS011;68384;55.750;48.746;2024-03-02T01:12:25;17.55;;;9.48;;
78985;SDS011;68384;55.750;48.746;2024-03-02T01:13:27;15.57;;;9.68;;
78985;SDS011;68384;55.750;48.746;2024-03-02T01:14:29;16.80;;;10.82;;
78985;SDS011;68384;55.750;48.746;2024-03-02T01:15:31;17.35;;;10.50;;
78985;SDS011;68384;55.750;48.746;2024-03-02T01:16:34;19.05;;;9.95;;
78985;SDS011;68384;55.750;48.746;2024-03-02T01:17:36;19.38;;;10.40;;
78985;SDS011;68384;55.750;48.746;2024-03-02T01:18:39;16.65;;;10.00;;
78985;SDS011;68384;55.750;48.746;2024-03-02T01:19:41;18.73;;;10.18;;
78985;SDS011;68384;55.750;48.746;2024-03-02T01:20:43;18.98;;;10.43;;
78985;SDS011;68384;55.750;48.746;2024-03-02T01:21:46;18.02;;;10.40;;
78985;SDS011;68384;55.750;48.746;2024-03-02T01:22:48;19.20;;;10.25;;
78985;SDS011;68384;55.750;48.746;2024-03-02T01:23:50;17.95;;;9.88;;
78985;SDS011;68384;55.750;48.746;2024-03-02T01:24:52;17.90;;;9.02;;
78985;SDS011;68384;55.750;48.746;2024-03-02T01:25:54;17.92;;;9.45;;
78985;SDS011;68384;55.750;48.746;2024-03-02T01:26:57;18.23;;;10.07;;
78985;SDS011;68384;55.750;48.746;2024-03-02T01:27:59;18.00;;;9.93;;
78985;SDS011;68384;55.750;48.746;2024-03-02T01:29:01;20.45;;;10.35;;
78985;SDS011;68384;55.750;48.746;2024-03-02T01:30:04;18.60;;;10.27;;
78985;SDS011;68384;55.750;48.746;2024-03-02T01:31:07;19.05;;;10.50;;
78985;SDS011;68384;55.750;48.746;2024-03-02T01:32:09;19.50;;;10.80;;
78985;SDS011;68384;55.750;48.746;2024-03-02T01:33:11;14.57;;;8.85;;
78985;SDS011;68384;55.750;48.746;2024-03-02T01:34:13;21.13;;;10.32;;
78985;SDS011;68384;55.750;48.746;2024-03-02T01:35:15;17.55;;;10.43;;
78985;SDS011;68384;55.750;48.746;2024-03-02T01:36:17;19.40;;;10.93;;
78985;SDS011;68384;55.750;48.746;2024-03-02T01:37:20;17.63;;;9.15;;
78985;SDS011;68384;55.750;48.746;2024-03-02T01:38:22;16.33;;;9.48;;
78985;SDS011;68384;55.750;48.746;2024-03-02T01:39:24;17.25;;;10.95;;
78985;SDS011;68384;55.750;48.746;2024-03-02T01:40:26;19.13;;;10.55;;
78985;SDS011;68384;55.750;48.746;2024-03-02T01:41:29;18.00;;;10.23;;
78985;SDS011;68384;55.750;48.746;2024-03-02T01:42:31;16.15;;;9.75;;
78985;SDS011;68384;55.750;48.746;2024-03-02T01:43:33;28.40;;;9.55;;
78985;SDS011;68384;55.750;48.746;2024-03-02T01:44:37;17.45;;;9.75;;
78985;SDS011;68384;55.750;48.746;2024-03-02T01:45:39;19.88;;;10.55;;
78985;SDS011;68384;55.750;48.746;2024-03-02T01:46:42;18.15;;;9.90;;
78985;SDS011;68384;55.750;48.746;2024-03-02T01:47:44;16.20;;;9.30;;
78985;SDS011;68384;55.750;48.746;2024-03-02T01:48:46;16.80;;;9.98;;
78985;SDS011;68384;55.750;48.746;2024-03-02T01:49:49;16.98;;;9.48;;
78985;SDS011;68384;55.750;48.746;2024-03-02T01:50:52;17.92;;;9.60;;
78985;SDS011;68384;55.750;48.746;2024-03-02T01:51:54;19.80;;;9.27;;
78985;SDS011;68384;55.750;48.746;2024-03-02T01:52:56;18.50;;;9.65;;
78985;SDS011;68384;55.750;48.746;2024-03-02T01:53:59;16.02;;;9.35;;
78985;SDS011;68384;55.750;48.746;2024-03-02T01:55:01;19.17;;;10.23;;
78985;SDS011;68384;55.750;48.746;2024-03-02T01:56:04;15.98;;;9.27;;
78985;SDS011;68384;55.750;48.746;2024-03-02T01:57:06;17.80;;;9.25;;
78985;SDS011;68384;55.750;48.746;2024-03-02T01:58:08;21.35;;;10.45;;
78985;SDS011;68384;55.750;48.746;2024-03-02T01:59:11;17.67;;;11.40;;
78985;SDS011;68384;55.750;48.746;2024-03-02T02:00:15;16.17;;;9.25;;
78985;SDS011;68384;55.750;48.746;2024-03-02T02:01:17;18.25;;;10.45;;
78985;SDS011;68384;55.750;48.746;2024-03-02T02:02:20;17.35;;;10.40;;
78985;SDS011;68384;55.750;48.746;2024-03-02T02:03:22;17.95;;;10.05;;
78985;SDS011;68384;55.750;48.746;2024-03-02T02:04:24;19.58;;;10.80;;
78985;SDS011;68384;55.750;48.746;2024-03-02T02:05:29;18.65;;;9.07;;
78985;SDS011;68384;55.750;48.746;2024-03-02T02:06:32;18.25;;;9.57;;
78985;SDS011;68384;55.750;48.746;2024-03-02T02:07:35;17.38;;;9.90;;
78985;SDS011;68384;55.750;48.746;2024-03-02T02:08:37;18.33;;;10.57;;
78985;SDS011;68384;55.750;48.746;2024-03-02T02:09:42;19.70;;;11.05;;
78985;SDS011;68384;55.750;48.746;2024-03-02T02:10:45;19.23;;;10.40;;
78985;SDS011;68384;55.750;48.746;2024-03-02T02:11:47;17.73;;;11.32;;
78985;SDS011;68384;55.750;48.746;2024-03-02T02:12:49;16.67;;;9.73;;
78985;SDS011;68384;55.750;48.746;2024-03-02T02:13:51;17.50;;;10.45;;
78985;SDS011;68384;55.750;48.746;2024-03-02T02:14:54;21.67;;;10.45;;
78985;SDS011;68384;55.750;48.746;2024-03-02T02:16:03;17.13;;;10.45;;
78985;SDS011;68384;55.750;48.746;2024-03-02T02:17:07;17.90;;;9.65;;
78985;SDS011;68384;55.750;48.746;2024-03-02T02:18:09;21.20;;;11.75;;
78985;SDS011;68384;55.750;48.746;2024-03-02T02:19:11;19.90;;;11.23;;
78985;SDS011;68384;55.750;48.746;2024-03-02T02:20:13;19.25;;;9.98;;
78985;SDS011;68384;55.750;48.746;2024-03-02T02:21:15;19.50;;;11.00;;
78985;SDS011;68384;55.750;48.746;2024-03-02T02:22:17;21.70;;;11.80;;
78985;SDS011;68384;55.750;48.746;2024-03-02T02:23:20;21.92;;;10.73;;
78985;SDS011;68384;55.750;48.746;2024-03-02T02:24:22;18.88;;;11.93;;
78985;SDS011;68384;55.750;48.746;2024-03-02T02:25:24;21.92;;;11.15;;
78985;SDS011;68384;55.750;48.746;2024-03-02T02:26:26;17.58;;;10.70;;
78985;SDS011;68384;55.750;48.746;2024-03-02T02:27:28;23.13;;;11.40;;
78985;SDS011;68384;55.750;48.746;2024-03-02T02:28:32;22.00;;;11.82;;
78985;SDS011;68384;55.750;48.746;2024-03-02T02:29:34;20.15;;;11.77;;
78985;SDS011;68384;55.750;48.746;2024-03-02T02:30:36;19.08;;;11.70;;
78985;SDS011;68384;55.750;48.746;2024-03-02T02:31:39;20.00;;;11.23;;
78985;SDS011;68384;55.750;48.746;2024-03-02T02:33:44;25.70;;;12.77;;
78985;SDS011;68384;55.750;48.746;2024-03-02T02:34:46;19.77;;;11.55;;
78985;SDS011;68384;55.750;48.746;2024-03-02T02:35:53;19.35;;;11.88;;
78985;SDS011;68384;55.750;48.746;2024-03-02T02:36:55;18.30;;;10.82;;
78985;SDS011;68384;55.750;48.746;2024-03-02T02:37:57;18.88;;;10.98;;
78985;SDS011;68384;55.750;48.746;2024-03-02T02:39:03;18.15;;;11.43;;
78985;SDS011;68384;55.750;48.746;2024-03-02T02:40:07;21.50;;;11.55;;
78985;SDS011;68384;55.750;48.746;2024-03-02T02:41:10;21.65;;;11.77;;
78985;SDS011;68384;55.750;48.746;2024-03-02T02:42:12;21.60;;;11.43;;
78985;SDS011;68384;55.750;48.746;2024-03-02T02:43:14;18.10;;;10.60;;
78985;SDS011;68384;55.750;48.746;2024-03-02T02:44:16;18.02;;;11.52;;
78985;SDS011;68384;55.750;48.746;2024-03-02T02:45:19;21.33;;;14.18;;
78985;SDS011;68384;55.750;48.746;2024-03-02T02:46:21;25.40;;;16.27;;
78985;SDS011;68384;55.750;48.746;2024-03-02T02:47:23;21.35;;;13.00;;
78985;SDS011;68384;55.750;48.746;2024-03-02T02:48:25;22.60;;;13.68;;
78985;SDS011;68384;55.750;48.746;2024-03-02T02:49:27;22.13;;;12.10;;
78985;SDS011;68384;55.750;48.746;2024-03-02T02:50:29;19.20;;;11.85;;
78985;SDS011;68384;55.750;48.746;2024-03-02T02:51:32;19.90;;;10.93;;
78985;SDS011;68384;55.750;48.746;2024-03-02T02:52:34;20.35;;;11.40;;
78985;SDS011;68384;55.750;48.746;2024-03-02T02:53:38;21.08;;;11.60;;
78985;SDS011;68384;55.750;48.746;2024-03-02T02:54:42;21.13;;;11.98;;
78985;SDS011;68384;55.750;48.746;2024-03-02T02:55:44;19.20;;;10.60;;
78985;SDS011;68384;55.750;48.746;2024-03-02T02:56:46;16.27;;;10.60;;
78985;SDS011;68384;55.750;48.746;2024-03-02T02:57:48;19.35;;;11.68;;
78985;SDS011;68384;55.750;48.746;2024-03-02T02:58:50;18.08;;;10.68;;
78985;SDS011;68384;55.750;48.746;2024-03-02T02:59:53;19.63;;;10.60;;
78985;SDS011;68384;55.750;48.746;2024-03-02T03:00:55;19.05;;;10.88;;
78985;SDS011;68384;55.750;48.746;2024-03-02T03:01:58;16.30;;;9.43;;
78985;SDS011;68384;55.750;48.746;2024-03-02T03:03:00;19.27;;;10.02;;
78985;SDS011;68384;55.750;48.746;2024-03-02T03:04:02;17.02;;;10.30;;
78985;SDS011;68384;55.750;48.746;2024-03-02T03:05:05;16.75;;;9.40;;
78985;SDS011;68384;55.750;48.746;2024-03-02T03:06:08;16.88;;;9.77;;
78985;SDS011;68384;55.750;48.746;2024-03-02T03:07:10;19.10;;;10.55;;
78985;SDS011;68384;55.750;48.746;2024-03-02T03:08:12;18.30;;;10.30;;
78985;SDS011;68384;55.750;48.746;2024-03-02T03:09:14;18.83;;;10.23;;
78985;SDS011;68384;55.750;48.746;2024-03-02T03:10:16;20.88;;;11.82;;
78985;SDS011;68384;55.750;48.746;2024-03-02T03:11:19;19.75;;;10.70;;
78985;SDS011;68384;55.750;48.746;2024-03-02T03:12:21;19.30;;;10.65;;
78985;SDS011;68384;55.750;48.746;2024-03-02T03:13:23;18.13;;;10.63;;
78985;SDS011;68384;55.750;48.746;2024-03-02T03:14:25;17.25;;;10.40;;
78985;SDS011;68384;55.750;48.746;2024-03-02T03:15:27;17.20;;;10.77;;
78985;SDS011;68384;55.750;48.746;2024-03-02T03:16:29;18.40;;;10.25;;
78985;SDS011;68384;55.750;48.746;2024-03-02T03:17:31;18.35;;;10.45;;
78985;SDS011;68384;55.750;48.746;2024-03-02T03:18:34;21.70;;;10.73;;
78985;SDS011;68384;55.750;48.746;2024-03-02T03:19:37;17.17;;;10.70;;
78985;SDS011;68384;55.750;48.746;2024-03-02T03:20:40;19.60;;;10.95;;
78985;SDS011;68384;55.750;48.746;2024-03-02T03:21:43;16.88;;;10.80;;
78985;SDS011;68384;55.750;48.746;2024-03-02T03:22:45;20.17;;;11.52;;
78985;SDS011;68384;55.750;48.746;2024-03-02T03:23:47;25.02;;;10.52;;
78985;SDS011;68384;55.750;48.746;2024-03-02T03:24:50;22.08;;;11.68;;
78985;SDS011;68384;55.750;48.746;2024-03-02T03:25:52;21.77;;;11.45;;
78985;SDS011;68384;55.750;48.746;2024-03-02T03:26:54;20.23;;;9.80;;
78985;SDS011;68384;55.750;48.746;2024-03-02T03:27:56;19.48;;;11.00;;
78985;SDS011;68384;55.750;48.746;2024-03-02T03:28:59;18.30;;;10.80;;
78985;SDS011;68384;55.750;48.746;2024-03-02T03:30:01;21.08;;;11.23;;
78985;SDS011;68384;55.750;48.746;2024-03-02T03:32:07;20.40;;;10.85;;
78985;SDS011;68384;55.750;48.746;2024-03-02T03:33:10;18.95;;;10.48;;
78985;SDS011;68384;55.750;48.746;2024-03-02T03:34:12;19.00;;;10.68;;
78985;SDS011;68384;55.750;48.746;2024-03-02T03:35:17;23.70;;;11.05;;
78985;SDS011;68384;55.750;48.746;2024-03-02T03:36:20;17.73;;;11.20;;
78985;SDS011;68384;55.750;48.746;2024-03-02T03:37:22;20.80;;;11.85;;
78985;SDS011;68384;55.750;48.746;2024-03-02T03:38:25;18.52;;;10.23;;
78985;SDS011;68384;55.750;48.746;2024-03-02T03:39:27;21.40;;;11.98;;
78985;SDS011;68384;55.750;48.746;2024-03-02T03:40:32;18.23;;;11.23;;
78985;SDS011;68384;55.750;48.746;2024-03-02T03:41:34;21.20;;;12.50;;
78985;SDS011;68384;55.750;48.746;2024-03-02T03:42:37;24.75;;;11.60;;
78985;SDS011;68384;55.750;48.746;2024-03-02T03:43:40;19.52;;;10.75;;
78985;SDS011;68384;55.750;48.746;2024-03-02T03:44:42;20.48;;;11.40;;
78985;SDS011;68384;55.750;48.746;2024-03-02T03:45:45;21.80;;;11.32;;
78985;SDS011;68384;55.750;48.746;2024-03-02T03:46:47;21.98;;;11.88;;
78985;SDS011;68384;55.750;48.746;2024-03-02T03:47:49;22.13;;;11.73;;
78985;SDS011;68384;55.750;48.746;2024-03-02T03:48:51;18.90;;;10.68;;
78985;SDS011;68384;55.750;48.746;2024-03-02T03:49:53;18.67;;;12.05;;
78985;SDS011;68384;55.750;48.746;2024-03-02T03:50:56;20.48;;;11.13;;
78985;SDS011;68384;55.750;48.746;2024-03-02T03:51:58;22.25;;;12.10;;
78985;SDS011;68384;55.750;48.746;2024-03-02T03:53:00;21.05;;;10.98;;
78985;SDS011;68384;55.750;48.746;2024-03-02T03:54:03;18.17;;;11.55;;
78985;SDS011;68384;55.750;48.746;2024-03-02T03:55:05;20.25;;;11.30;;
78985;SDS011;68384;55.750;48.746;2024-03-02T03:56:08;17.50;;;10.70;;
78985;SDS011;68384;55.750;48.746;2024-03-02T03:57:10;21.08;;;11.40;;
78985;SDS011;68384;55.750;48.746;2024-03-02T03:58:12;19.42;;;11.43;;
78985;SDS011;68384;55.750;48.746;2024-03-02T03:59:15;22.80;;;11.35;;
78985;SDS011;68384;55.750;48.746;2024-03-02T04:00:17;20.27;;;11.40;;
78985;SDS011;68384;55.750;48.746;2024-03-02T04:01:19;18.13;;;10.57;;
78985;SDS011;68384;55.750;48.746;2024-03-02T04:02:24;19.15;;;10.27;;
78985;SDS011;68384;55.750;48.746;2024-03-02T04:03:26;21.77;;;12.20;;
78985;SDS011;68384;55.750;48.746;2024-03-02T04:04:28;19.88;;;11.07;;
78985;SDS011;68384;55.750;48.746;2024-03-02T04:05:30;18.42;;;10.80;;
78985;SDS011;68384;55.750;48.746;2024-03-02T04:06:32;18.33;;;10.35;;
78985;SDS011;68384;55.750;48.746;2024-03-02T04:07:35;17.67;;;10.35;;
78985;SDS011;68384;55.750;48.746;2024-03-02T04:08:45;16.70;;;10.85;;
78985;SDS011;68384;55.750;48.746;2024-03-02T04:09:47;18.48;;;11.32;;
78985;SDS011;68384;55.750;48.746;2024-03-02T04:10:49;17.85;;;10.10;;
78985;SDS011;68384;55.750;48.746;2024-03-02T04:11:51;21.00;;;11.32;;
78985;SDS011;68384;55.750;48.746;2024-03-02T04:12:53;20.50;;;11.45;;
78985;SDS011;68384;55.750;48.746;2024-03-02T04:13:56;17.98;;;10.38;;
78985;SDS011;68384;55.750;48.746;2024-03-02T04:14:59;17.67;;;11.52;;
78985;SDS011;68384;55.750;48.746;2024-03-02T04:16:03;22.13;;;10.75;;
78985;SDS011;68384;55.750;48.746;2024-03-02T04:17:06;18.02;;;10.98;;
78985;SDS011;68384;55.750;48.746;2024-03-02T04:18:08;20.23;;;11.40;;
78985;SDS011;68384;55.750;48.746;2024-03-02T04:19:11;24.80;;;12.75;;
78985;SDS011;68384;55.750;48.746;2024-03-02T04:20:13;24.23;;;11.85;;
78985;SDS011;68384;55.750;48.746;2024-03-02T04:21:16;18.85;;;11.02;;
78985;SDS011;68384;55.750;48.746;2024-03-02T04:22:18;22.30;;;12.27;;
78985;SDS011;68384;55.750;48.746;2024-03-02T04:23:26;22.52;;;11.98;;
78985;SDS011;68384;55.750;48.746;2024-03-02T04:24:28;20.88;;;11.93;;
78985;SDS011;68384;55.750;48.746;2024-03-02T04:25:30;21.40;;;11.63;;
78985;SDS011;68384;55.750;48.746;2024-03-02T04:26:32;18.63;;;11.35;;
78985;SDS011;68384;55.750;48.746;2024-03-02T04:27:35;23.45;;;12.07;;
78985;SDS011;68384;55.750;48.746;2024-03-02T04:28:37;19.00;;;10.73;;
78985;SDS011;68384;55.750;48.746;2024-03-02T04:29:39;20.60;;;11.15;;
78985;SDS011;68384;55.750;48.746;2024-03-02T04:30:41;19.48;;;10.88;;
78985;SDS011;68384;55.750;48.746;2024-03-02T04:31:44;19.65;;;10.13;;
78985;SDS011;68384;55.750;48.746;2024-03-02T04:32:46;19.60;;;11.32;;
78985;SDS011;68384;55.750;48.746;2024-03-02T04:33:49;20.30;;;11.15;;
78985;SDS011;68384;55.750;48.746;2024-03-02T04:34:51;16.15;;;10.13;;
78985;SDS011;68384;55.750;48.746;2024-03-02T04:35:53;20.05;;;11.82;;
78985;SDS011;68384;55.750;48.746;2024-03-02T04:36:55;17.95;;;10.25;;
78985;SDS011;68384;55.750;48.746;2024-03-02T04:37:58;17.75;;;10.95;;
78985;SDS011;68384;55.750;48.746;2024-03-02T04:39:00;19.13;;;10.20;;
78985;SDS011;68384;55.750;48.746;2024-03-02T04:40:02;18.65;;;10.50;;
78985;SDS011;68384;55.750;48.746;2024-03-02T04:41:05;15.63;;;10.00;;
78985;SDS011;68384;55.750;48.746;2024-03-02T04:42:10;22.05;;;10.68;;
78985;SDS011;68384;55.750;48.746;2024-03-02T04:43:12;16.63;;;9.77;;
78985;SDS011;68384;55.750;48.746;2024-03-02T04:44:18;15.82;;;10.23;;
78985;SDS011;68384;55.750;48.746;2024-03-02T04:45:20;15.77;;;10.35;;
78985;SDS011;68384;55.750;48.746;2024-03-02T04:46:22;16.98;;;9.93;;
78985;SDS011;68384;55.750;48.746;2024-03-02T04:47:24;19.50;;;10.82;;
78985;SDS011;68384;55.750;48.746;2024-03-02T04:48:27;18.42;;;11.57;;
78985;SDS011;68384;55.750;48.746;2024-03-02T04:49:29;20.05;;;11.73;;
78985;SDS011;68384;55.750;48.746;2024-03-02T04:50:32;16.60;;;10.55;;
78985;SDS011;68384;55.750;48.746;2024-03-02T04:51:34;21.33;;;11.35;;
78985;SDS011;68384;55.750;48.746;2024-03-02T04:52:36;22.42;;;10.52;;
78985;SDS011;68384;55.750;48.746;2024-03-02T04:53:38;17.98;;;11.07;;
78985;SDS011;68384;55.750;48.746;2024-03-02T04:54:40;16.98;;;10.30;;
78985;SDS011;68384;55.750;48.746;2024-03-02T04:56:08;18.80;;;11.10;;
78985;SDS011;68384;55.750;48.746;2024-03-02T04:57:29;23.27;;;10.88;;
78985;SDS011;68384;55.750;48.746;2024-03-02T04:58:31;16.60;;;10.27;;
78985;SDS011;68384;55.750;48.746;2024-03-02T04:59:34;22.35;;;11.07;;
78985;SDS011;68384;55.750;48.746;2024-03-02T05:00:36;17.35;;;10.43;;
78985;SDS011;68384;55.750;48.746;2024-03-02T05:01:38;18.77;;;11.10;;
78985;SDS011;68384;55.750;48.746;2024-03-02T05:02:40;23.98;;;11.23;;
78985;SDS011;68384;55.750;48.746;2024-03-02T05:03:42;16.63;;;10.02;;
78985;SDS011;68384;55.750;48.746;2024-03-02T05:04:44;17.95;;;10.60;;
78985;SDS011;68384;55.750;48.746;2024-03-02T05:05:47;18.75;;;10.23;;
78985;SDS011;68384;55.750;48.746;2024-03-02T05:06:49;16.77;;;10.02;;
78985;SDS011;68384;55.750;48.746;2024-03-02T05:07:54;17.85;;;9.15;;
78985;SDS011;68384;55.750;48.746;2024-03-02T05:08:56;17.05;;;10.02;;
78985;SDS011;68384;55.750;48.746;2024-03-02T05:09:59;15.60;;;9.57;;
78985;SDS011;68384;55.750;48.746;2024-03-02T05:11:01;17.75;;;9.68;;
78985;SDS011;68384;55.750;48.746;2024-03-02T05:12:23;15.27;;;9.75;;
78985;SDS011;68384;55.750;48.746;2024-03-02T05:13:44;19.60;;;10.82;;
78985;SDS011;68384;55.750;48.746;2024-03-02T05:14:46;18.27;;;11.10;;
78985;SDS011;68384;55.750;48.746;2024-03-02T05:15:48;16.77;;;10.32;;
78985;SDS011;68384;55.750;48.746;2024-03-02T05:16:51;17.30;;;9.02;;
78985;SDS011;68384;55.750;48.746;2024-03-02T05:17:53;18.42;;;10.30;;
78985;SDS011;68384;55.750;48.746;2024-03-02T05:18:55;17.40;;;9.95;;
78985;SDS011;68384;55.750;48.746;2024-03-02T05:19:57;15.15;;;9.63;;
78985;SDS011;68384;55.750;48.746;2024-03-02T05:21:00;16.98;;;9.20;;
78985;SDS011;68384;55.750;48.746;2024-03-02T05:22:02;17.83;;;9.82;;
78985;SDS011;68384;55.750;48.746;2024-03-02T05:23:05;20.05;;;10.98;;
78985;SDS011;68384;55.750;48.746;2024-03-02T05:24:07;14.88;;;9.00;;
78985;SDS011;68384;55.750;48.746;2024-03-02T05:25:09;18.25;;;9.75;;
78985;SDS011;68384;55.750;48.746;2024-03-02T05:26:12;16.40;;;9.70;;
78985;SDS011;68384;55.750;48.746;2024-03-02T05:27:14;15.13;;;9.45;;
78985;SDS011;68384;55.750;48.746;2024-03-02T05:28:16;15.35;;;8.60;;
78985;SDS011;68384;55.750;48.746;2024-03-02T05:29:19;15.55;;;8.98;;
78985;SDS011;68384;55.750;48.746;2024-03-02T05:30:22;15.85;;;10.27;;
78985;SDS011;68384;55.750;48.746;2024-03-02T05:31:24;15.32;;;9.20;;
78985;SDS011;68384;55.750;48.746;2024-03-02T05:32:26;16.92;;;9.95;;
78985;SDS011;68384;55.750;48.746;2024-03-02T05:33:29;16.73;;;9.50;;
78985;SDS011;68384;55.750;48.746;2024-03-02T05:34:35;18.48;;;10.68;;
78985;SDS011;68384;55.750;48.746;2024-03-02T05:35:37;16.67;;;9.77;;
78985;SDS011;68384;55.750;48.746;2024-03-02T05:36:39;15.95;;;9.65;;
78985;SDS011;68384;55.750;48.746;2024-03-02T05:37:42;14.07;;;9.15;;
78985;SDS011;68384;55.750;48.746;2024-03-02T05:38:44;18.13;;;9.18;;
78985;SDS011;68384;55.750;48.746;2024-03-02T05:39:46;15.82;;;9.40;;
78985;SDS011;68384;55.750;48.746;2024-03-02T05:40:48;17.65;;;10.45;;
78985;SDS011;68384;55.750;48.746;2024-03-02T05:41:50;15.93;;;9.00;;
78985;SDS011;68384;55.750;48.746;2024-03-02T05:42:52;16.63;;;9.02;;
78985;SDS011;68384;55.750;48.746;2024-03-02T05:43:55;16.13;;;9.10;;
78985;SDS011;68384;55.750;48.746;2024-03-02T05:44:57;18.17;;;10.50;;
78985;SDS011;68384;55.750;48.746;2024-03-02T05:45:59;16.60;;;9.40;;
78985;SDS011;68384;55.750;48.746;2024-03-02T05:47:01;17.65;;;9.25;;
78985;SDS011;68384;55.750;48.746;2024-03-02T05:48:05;16.25;;;8.65;;
78985;SDS011;68384;55.750;48.746;2024-03-02T05:49:09;16.48;;;9.77;;
78985;SDS011;68384;55.750;48.746;2024-03-02T05:50:12;15.73;;;8.98;;
78985;SDS011;68384;55.750;48.746;2024-03-02T05:51:14;15.98;;;9.65;;
78985;SDS011;68384;55.750;48.746;2024-03-02T05:52:16;16.45;;;9.90;;
78985;SDS011;68384;55.750;48.746;2024-03-02T05:53:18;16.30;;;9.52;;
78985;SDS011;68384;55.750;48.746;2024-03-02T05:54:20;17.38;;;9.50;;
78985;SDS011;68384;55.750;48.746;2024-03-02T05:55:22;15.88;;;9.57;;
78985;SDS011;68384;55.750;48.746;2024-03-02T05:56:24;14.85;;;9.57;;
78985;SDS011;68384;55.750;48.746;2024-03-02T05:57:26;14.95;;;9.70;;
78985;SDS011;68384;55.750;48.746;2024-03-02T05:59:01;14.80;;;9.50;;
78985;SDS011;68384;55.750;48.746;2024-03-02T06:00:15;18.20;;;9.57;;
78985;SDS011;68384;55.750;48.746;2024-03-02T06:01:19;17.77;;;9.57;;
78985;SDS011;68384;55.750;48.746;2024-03-02T06:02:22;18.67;;;9.90;;
78985;SDS011;68384;55.750;48.746;2024-03-02T06:03:24;16.77;;;9.73;;
78985;SDS011;68384;55.750;48.746;2024-03-02T06:04:26;16.77;;;9.55;;
78985;SDS011;68384;55.750;48.746;2024-03-02T06:05:28;14.38;;;9.27;;
78985;SDS011;68384;55.750;48.746;2024-03-02T06:06:30;16.98;;;9.27;;
78985;SDS011;68384;55.750;48.746;2024-03-02T06:07:35;17.60;;;9.88;;
78985;SDS011;68384;55.750;48.746;2024-03-02T06:08:37;15.55;;;9.70;;
78985;SDS011;68384;55.750;48.746;2024-03-02T06:09:40;15.25;;;8.57;;
78985;SDS011;68384;55.750;48.746;2024-03-02T06:10:43;15.57;;;9.20;;
78985;SDS011;68384;55.750;48.746;2024-03-02T06:11:45;17.52;;;9.07;;